createdAt,value
2022-11-07T00:00:31.932Z,89.20
2022-11-07T00:01:31.935Z,88.96
2022-11-07T00:02:31.971Z,89.06
2022-11-07T00:03:31.917Z,88.85
2022-11-07T00:04:31.898Z,89.06
2022-11-07T00:05:31.877Z,89.17
2022-11-07T00:06:34.440Z,89.26
2022-11-07T00:07:31.895Z,88.85
2022-11-07T00:08:31.989Z,88.96
2022-11-07T00:09:31.831Z,89.06
2022-11-07T00:10:31.833Z,89.06
2022-11-07T00:11:31.819Z,89.26
2022-11-07T00:12:34.467Z,89.17
2022-11-07T00:13:31.835Z,88.85
2022-11-07T00:14:31.784Z,89.26
2022-11-07T00:15:31.768Z,89.26
2022-11-07T00:16:31.771Z,89.02
2022-11-07T00:17:33.792Z,89.17
2022-11-07T00:18:31.730Z,89.06
2022-11-07T00:19:31.759Z,88.92
2022-11-07T00:20:31.710Z,88.96
2022-11-07T00:21:31.703Z,89.17
2022-11-07T00:22:31.679Z,89.37
2022-11-07T00:23:31.701Z,88.96
2022-11-07T00:24:31.689Z,89.23
2022-11-07T00:25:31.671Z,89.06
2022-11-07T00:26:38.442Z,89.37
2022-11-07T00:27:31.734Z,89.26
2022-11-07T00:28:31.637Z,89.26
2022-11-07T00:29:31.617Z,89.67
2022-11-07T00:30:31.591Z,89.37
2022-11-07T00:31:31.616Z,89.63
2022-11-07T00:32:31.580Z,89.47
2022-11-07T00:33:32.437Z,89.37
2022-11-07T00:34:31.555Z,89.78
2022-11-07T00:35:31.558Z,89.63
2022-11-07T00:36:31.538Z,89.58
2022-11-07T00:37:31.545Z,89.84
2022-11-07T00:38:31.523Z,89.98
2022-11-07T00:39:31.504Z,89.84
2022-11-07T00:40:31.502Z,89.84
2022-11-07T00:41:31.505Z,89.43
2022-11-07T00:42:31.467Z,89.84
2022-11-07T00:43:31.487Z,89.84
2022-11-07T00:44:31.445Z,89.73
2022-11-07T00:45:31.437Z,89.94
2022-11-07T00:46:31.940Z,89.84
2022-11-07T00:47:31.433Z,89.84
2022-11-07T00:48:31.414Z,89.84
2022-11-07T00:49:31.392Z,89.84
2022-11-07T00:50:31.377Z,89.43
2022-11-07T00:51:31.381Z,89.73
2022-11-07T00:52:31.352Z,89.94
2022-11-07T00:53:31.368Z,89.84
2022-11-07T00:54:31.329Z,89.12
2022-11-07T00:55:31.328Z,90.14
2022-11-07T00:56:31.341Z,89.12
2022-11-07T00:57:31.294Z,89.32
2022-11-07T00:58:31.308Z,89.84
2022-11-07T00:59:31.310Z,89.94
2022-11-07T01:00:31.300Z,90.25
2022-11-07T01:01:31.428Z,89.23
2022-11-07T01:02:31.531Z,90.25
2022-11-07T01:03:31.257Z,90.90
2022-11-07T01:04:31.225Z,91.00
2022-11-07T01:05:31.210Z,90.39
2022-11-07T01:06:31.229Z,90.35
2022-11-07T01:07:31.184Z,90.29
2022-11-07T01:08:31.191Z,90.39
2022-11-07T01:09:31.170Z,90.19
2022-11-07T01:10:31.178Z,90.39
2022-11-07T01:11:31.176Z,90.19
2022-11-07T01:12:31.167Z,90.25
2022-11-07T01:13:31.124Z,90.29
2022-11-07T01:14:31.132Z,90.75
2022-11-07T01:15:31.099Z,90.66
2022-11-07T01:16:31.085Z,90.75
2022-11-07T01:17:31.108Z,90.25
2022-11-07T01:18:31.066Z,90.96
2022-11-07T01:19:31.097Z,90.96
2022-11-07T01:20:31.048Z,90.25
2022-11-07T01:21:31.054Z,90.10
2022-11-07T01:22:31.028Z,90.25
2022-11-07T01:23:31.024Z,90.25
2022-11-07T01:24:30.995Z,90.20
2022-11-07T01:25:31.001Z,90.20
2022-11-07T01:26:30.990Z,90.00
2022-11-07T01:27:30.994Z,90.20
2022-11-07T01:28:30.971Z,89.79
2022-11-07T01:29:30.939Z,90.31
2022-11-07T01:30:31.972Z,90.10
2022-11-07T01:31:30.941Z,90.20
2022-11-07T01:32:30.918Z,90.31
2022-11-07T01:33:30.890Z,90.00
2022-11-07T01:34:30.897Z,89.79
2022-11-07T01:35:30.874Z,89.28
2022-11-07T01:36:30.881Z,89.08
2022-11-07T01:37:30.904Z,89.08
2022-11-07T01:38:30.837Z,89.08
2022-11-07T01:39:30.854Z,89.59
2022-11-07T01:40:30.829Z,89.49
2022-11-07T01:41:30.834Z,89.59
2022-11-07T01:42:30.819Z,89.90
2022-11-07T01:43:30.789Z,89.90
2022-11-07T01:44:30.832Z,89.59
2022-11-07T01:45:30.776Z,89.59
2022-11-07T01:46:30.753Z,89.59
2022-11-07T01:47:30.747Z,89.79
2022-11-07T01:48:30.733Z,89.39
2022-11-07T01:49:30.749Z,89.79
2022-11-07T01:50:30.714Z,89.79
2022-11-07T01:51:30.702Z,89.90
2022-11-07T01:52:30.704Z,89.69
2022-11-07T01:53:30.682Z,89.79
2022-11-07T01:54:30.693Z,89.90
2022-11-07T01:55:30.664Z,89.94
2022-11-07T01:56:30.642Z,89.59
2022-11-07T01:57:30.641Z,89.69
2022-11-07T01:58:30.640Z,89.49
2022-11-07T01:59:30.633Z,89.90
2022-11-07T02:00:30.619Z,89.69
2022-11-07T02:01:30.712Z,89.69
2022-11-07T02:02:30.665Z,89.69
2022-11-07T02:03:30.564Z,89.39
2022-11-07T02:04:51.583Z,89.49
2022-11-07T02:05:30.546Z,90.10
2022-11-07T02:06:31.581Z,89.90
2022-11-07T02:07:30.541Z,90.25
2022-11-07T02:08:30.517Z,90.51
2022-11-07T02:09:30.492Z,90.00
2022-11-07T02:10:30.517Z,90.35
2022-11-07T02:11:30.477Z,90.25
2022-11-07T02:12:30.463Z,90.86
2022-11-07T02:13:32.448Z,90.25
2022-11-07T02:14:30.441Z,90.29
2022-11-07T02:15:31.486Z,91.00
2022-11-07T02:16:30.453Z,90.80
2022-11-07T02:17:30.417Z,91.20
2022-11-07T02:18:30.414Z,91.20
2022-11-07T02:19:30.392Z,90.80
2022-11-07T02:20:30.400Z,91.20
2022-11-07T02:21:30.370Z,91.61
2022-11-07T02:22:30.377Z,91.56
2022-11-07T02:23:30.367Z,91.46
2022-11-07T02:24:30.329Z,91.56
2022-11-07T02:25:30.336Z,91.20
2022-11-07T02:26:30.304Z,91.46
2022-11-07T02:27:30.305Z,91.25
2022-11-07T02:28:30.309Z,91.46
2022-11-07T02:29:30.279Z,91.15
2022-11-07T02:30:30.259Z,91.46
2022-11-07T02:31:30.257Z,91.46
2022-11-07T02:32:30.283Z,91.76
2022-11-07T02:33:30.260Z,92.17
2022-11-07T02:34:30.243Z,91.96
2022-11-07T02:35:30.211Z,92.37
2022-11-07T02:36:30.199Z,92.27
2022-11-07T02:37:30.195Z,91.96
2022-11-07T02:38:30.170Z,91.96
2022-11-07T02:39:30.187Z,92.11
2022-11-07T02:40:30.161Z,92.21
2022-11-07T02:41:30.134Z,92.27
2022-11-07T02:42:30.148Z,91.96
2022-11-07T02:43:30.122Z,92.07
2022-11-07T02:44:30.154Z,91.96
2022-11-07T02:45:30.098Z,92.17
2022-11-07T02:46:30.088Z,92.47
2022-11-07T02:47:30.081Z,92.58
2022-11-07T02:48:30.107Z,92.78
2022-11-07T02:49:30.057Z,92.78
2022-11-07T02:50:30.061Z,92.37
2022-11-07T02:51:30.060Z,92.37
2022-11-07T02:52:30.020Z,92.58
2022-11-07T02:53:30.016Z,92.58
2022-11-07T02:54:29.997Z,91.96
2022-11-07T02:55:30.011Z,92.78
2022-11-07T02:56:29.979Z,92.58
2022-11-07T02:57:29.975Z,92.78
2022-11-07T02:58:29.970Z,92.52
2022-11-07T02:59:29.941Z,92.37
2022-11-07T03:00:29.932Z,92.37
2022-11-07T03:01:30.056Z,92.27
2022-11-07T03:02:30.004Z,92.37
2022-11-07T03:03:29.897Z,92.78
2022-11-07T03:04:29.901Z,92.68
2022-11-07T03:05:29.896Z,93.03
2022-11-07T03:06:29.898Z,93.09
2022-11-07T03:07:29.850Z,93.09
2022-11-07T03:08:29.860Z,92.88
2022-11-07T03:09:29.832Z,92.99
2022-11-07T03:10:29.824Z,92.47
2022-11-07T03:11:29.803Z,92.99
2022-11-07T03:12:30.874Z,92.88
2022-11-07T03:13:29.788Z,92.93
2022-11-07T03:14:29.860Z,92.99
2022-11-07T03:15:29.775Z,92.88
2022-11-07T03:16:29.782Z,92.78
2022-11-07T03:17:29.742Z,92.99
2022-11-07T03:18:29.741Z,92.68
2022-11-07T03:19:29.730Z,92.99
2022-11-07T03:20:31.788Z,92.58
2022-11-07T03:21:29.701Z,92.78
2022-11-07T03:22:29.693Z,92.88
2022-11-07T03:23:29.675Z,92.74
2022-11-07T03:24:30.692Z,92.33
2022-11-07T03:25:29.653Z,92.07
2022-11-07T03:26:29.669Z,92.58
2022-11-07T03:27:29.627Z,92.78
2022-11-07T03:28:29.629Z,92.78
2022-11-07T03:29:29.609Z,91.92
2022-11-07T03:30:29.630Z,92.33
2022-11-07T03:31:29.587Z,92.37
2022-11-07T03:32:29.601Z,92.43
2022-11-07T03:33:30.591Z,92.54
2022-11-07T03:34:29.543Z,92.33
2022-11-07T03:35:29.549Z,92.33
2022-11-07T03:36:29.585Z,92.13
2022-11-07T03:37:29.545Z,92.54
2022-11-07T03:38:29.505Z,91.92
2022-11-07T03:39:29.504Z,91.92
2022-11-07T03:40:29.523Z,92.02
2022-11-07T03:41:29.500Z,91.78
2022-11-07T03:42:29.464Z,92.08
2022-11-07T03:43:29.447Z,92.02
2022-11-07T03:44:31.949Z,92.02
2022-11-07T03:45:29.450Z,91.92
2022-11-07T03:46:29.433Z,92.02
2022-11-07T03:47:29.435Z,92.23
2022-11-07T03:48:29.403Z,92.02
2022-11-07T03:49:31.949Z,92.13
2022-11-07T03:50:29.396Z,92.33
2022-11-07T03:51:29.366Z,92.33
2022-11-07T03:52:29.375Z,92.23
2022-11-07T03:53:29.368Z,91.92
2022-11-07T03:54:29.339Z,91.92
2022-11-07T03:55:29.324Z,92.29
2022-11-07T03:56:29.951Z,92.13
2022-11-07T03:57:29.295Z,91.98
2022-11-07T03:58:29.312Z,92.43
2022-11-07T03:59:35.947Z,92.02
2022-11-07T04:00:29.300Z,92.29
2022-11-07T04:01:29.403Z,91.78
2022-11-07T04:02:29.406Z,91.78
2022-11-07T04:03:29.234Z,92.08
2022-11-07T04:04:29.277Z,91.98
2022-11-07T04:05:29.208Z,92.49
2022-11-07T04:06:29.204Z,91.47
2022-11-07T04:07:29.197Z,91.22
2022-11-07T04:08:29.304Z,91.47
2022-11-07T04:09:29.175Z,90.92
2022-11-07T04:10:29.183Z,91.12
2022-11-07T04:11:30.191Z,90.71
2022-11-07T04:12:29.129Z,91.02
2022-11-07T04:13:29.124Z,91.12
2022-11-07T04:14:29.115Z,91.12
2022-11-07T04:15:29.943Z,91.63
2022-11-07T04:16:30.172Z,91.43
2022-11-07T04:17:29.090Z,91.12
2022-11-07T04:18:29.069Z,91.02
2022-11-07T04:19:29.076Z,90.92
2022-11-07T04:20:29.048Z,91.43
2022-11-07T04:21:29.050Z,91.43
2022-11-07T04:22:29.016Z,91.02
2022-11-07T04:23:29.018Z,91.33
2022-11-07T04:24:29.056Z,91.02
2022-11-07T04:25:28.996Z,91.12
2022-11-07T04:26:28.978Z,90.92
2022-11-07T04:27:28.968Z,91.22
2022-11-07T04:28:28.979Z,91.37
2022-11-07T04:29:28.943Z,91.37
2022-11-07T04:30:29.459Z,91.16
2022-11-07T04:31:28.922Z,91.27
2022-11-07T04:32:28.916Z,91.37
2022-11-07T04:33:28.902Z,91.47
2022-11-07T04:34:28.916Z,91.92
2022-11-07T04:35:28.872Z,92.29
2022-11-07T04:36:28.863Z,91.92
2022-11-07T04:37:28.854Z,92.33
2022-11-07T04:38:28.856Z,92.33
2022-11-07T04:39:28.831Z,92.13
2022-11-07T04:40:29.950Z,92.64
2022-11-07T04:41:28.813Z,92.33
2022-11-07T04:42:28.813Z,92.33
2022-11-07T04:43:28.784Z,92.33
2022-11-07T04:44:28.787Z,92.23
2022-11-07T04:45:28.783Z,92.27
2022-11-07T04:46:30.502Z,92.27
2022-11-07T04:47:28.746Z,92.58
2022-11-07T04:48:28.735Z,92.88
2022-11-07T04:49:28.719Z,92.88
2022-11-07T04:50:29.789Z,92.99
2022-11-07T04:51:28.692Z,92.78
2022-11-07T04:52:28.714Z,92.99
2022-11-07T04:53:28.672Z,92.78
2022-11-07T04:54:28.675Z,92.78
2022-11-07T04:55:28.639Z,92.78
2022-11-07T04:56:34.182Z,92.47
2022-11-07T04:57:29.652Z,92.88
2022-11-07T04:58:29.672Z,92.47
2022-11-07T04:59:28.608Z,92.47
2022-11-07T05:00:28.605Z,92.47
2022-11-07T05:01:28.614Z,92.47
2022-11-07T05:02:28.721Z,92.88
2022-11-07T05:03:28.584Z,92.68
2022-11-07T05:04:28.559Z,92.78
2022-11-07T05:05:28.552Z,92.88
2022-11-07T05:06:29.606Z,92.88
2022-11-07T05:07:28.521Z,92.68
2022-11-07T05:08:28.544Z,92.88
2022-11-07T05:09:28.523Z,92.78
2022-11-07T05:10:29.455Z,92.99
2022-11-07T05:11:28.473Z,92.68
2022-11-07T05:12:28.489Z,92.47
2022-11-07T05:13:28.476Z,92.84
2022-11-07T05:14:28.475Z,92.94
2022-11-07T05:15:28.445Z,92.88
2022-11-07T05:16:28.427Z,92.68
2022-11-07T05:17:28.409Z,92.58
2022-11-07T05:18:28.408Z,92.68
2022-11-07T05:19:28.407Z,92.88
2022-11-07T05:20:28.390Z,93.09
2022-11-07T05:21:28.369Z,93.19
2022-11-07T05:22:29.990Z,93.29
2022-11-07T05:23:28.342Z,93.40
2022-11-07T05:24:28.337Z,93.74
2022-11-07T05:25:28.349Z,93.40
2022-11-07T05:26:29.349Z,93.60
2022-11-07T05:27:28.299Z,93.60
2022-11-07T05:28:36.981Z,93.95
2022-11-07T05:29:29.275Z,93.50
2022-11-07T05:30:28.294Z,93.80
2022-11-07T05:31:30.338Z,93.29
2022-11-07T05:32:28.239Z,93.74
2022-11-07T05:33:28.241Z,93.60
2022-11-07T05:34:28.228Z,93.80
2022-11-07T05:35:28.220Z,93.74
2022-11-07T05:36:28.236Z,93.70
2022-11-07T05:37:28.188Z,93.40
2022-11-07T05:38:29.216Z,93.29
2022-11-07T05:39:28.176Z,93.60
2022-11-07T05:40:28.187Z,93.40
2022-11-07T05:41:28.154Z,93.54
2022-11-07T05:42:28.147Z,93.91
2022-11-07T05:43:28.123Z,93.60
2022-11-07T05:44:29.228Z,93.74
2022-11-07T05:45:28.102Z,93.70
2022-11-07T05:46:29.147Z,93.50
2022-11-07T05:47:28.094Z,93.91
2022-11-07T05:48:29.094Z,93.80
2022-11-07T05:49:28.060Z,93.91
2022-11-07T05:50:28.051Z,93.70
2022-11-07T05:51:28.035Z,93.40
2022-11-07T05:52:28.055Z,93.80
2022-11-07T05:53:28.624Z,93.74
2022-11-07T05:54:29.030Z,93.70
2022-11-07T05:55:30.956Z,93.60
2022-11-07T05:56:27.975Z,93.60
2022-11-07T05:57:27.965Z,93.85
2022-11-07T05:58:27.966Z,93.60
2022-11-07T05:59:27.982Z,93.09
2022-11-07T06:00:27.973Z,93.24
2022-11-07T06:01:27.948Z,92.99
2022-11-07T06:02:28.094Z,93.03
2022-11-07T06:03:27.930Z,93.44
2022-11-07T06:04:27.907Z,93.09
2022-11-07T06:05:27.873Z,93.40
2022-11-07T06:06:27.876Z,93.44
2022-11-07T06:07:27.863Z,93.65
2022-11-07T06:08:27.874Z,93.54
2022-11-07T06:09:27.835Z,93.54
2022-11-07T06:10:27.820Z,92.88
2022-11-07T06:11:27.826Z,93.24
2022-11-07T06:12:28.476Z,93.24
2022-11-07T06:13:27.837Z,93.24
2022-11-07T06:14:28.829Z,93.24
2022-11-07T06:15:27.758Z,93.24
2022-11-07T06:16:27.857Z,93.33
2022-11-07T06:17:27.743Z,92.93
2022-11-07T06:18:27.744Z,93.33
2022-11-07T06:19:27.750Z,93.09
2022-11-07T06:20:27.715Z,93.24
2022-11-07T06:21:27.718Z,93.40
2022-11-07T06:22:28.706Z,93.13
2022-11-07T06:23:27.672Z,93.24
2022-11-07T06:24:27.672Z,93.13
2022-11-07T06:25:27.685Z,92.93
2022-11-07T06:26:27.644Z,92.83
2022-11-07T06:27:27.676Z,93.54
2022-11-07T06:28:27.627Z,93.19
2022-11-07T06:29:27.620Z,92.93
2022-11-07T06:30:28.642Z,93.13
2022-11-07T06:31:27.632Z,93.03
2022-11-07T06:32:27.599Z,93.13
2022-11-07T06:33:27.575Z,93.19
2022-11-07T06:34:29.604Z,92.78
2022-11-07T06:35:27.543Z,92.83
2022-11-07T06:36:27.539Z,93.03
2022-11-07T06:37:27.535Z,93.03
2022-11-07T06:38:27.533Z,93.33
2022-11-07T06:39:27.489Z,93.03
2022-11-07T06:40:27.491Z,92.99
2022-11-07T06:41:27.470Z,93.03
2022-11-07T06:42:27.463Z,92.93
2022-11-07T06:43:27.479Z,93.03
2022-11-07T06:44:27.454Z,93.13
2022-11-07T06:45:27.427Z,92.83
2022-11-07T06:46:28.453Z,92.93
2022-11-07T06:47:27.407Z,93.54
2022-11-07T06:48:27.534Z,93.65
2022-11-07T06:49:27.956Z,93.95
2022-11-07T06:50:27.380Z,93.65
2022-11-07T06:51:27.363Z,93.65
2022-11-07T06:52:27.360Z,93.44
2022-11-07T06:53:27.358Z,93.13
2022-11-07T06:54:27.364Z,93.13
2022-11-07T06:55:27.331Z,92.72
2022-11-07T06:56:27.305Z,92.62
2022-11-07T06:57:27.295Z,93.33
2022-11-07T06:58:27.292Z,92.78
2022-11-07T06:59:27.285Z,93.13
2022-11-07T07:00:27.304Z,92.93
2022-11-07T07:01:27.480Z,92.68
2022-11-07T07:02:52.116Z,92.78
2022-11-07T07:03:28.236Z,92.78
2022-11-07T07:04:27.238Z,92.78
2022-11-07T07:05:27.243Z,92.88
2022-11-07T07:06:27.221Z,92.58
2022-11-07T07:07:27.188Z,92.78
2022-11-07T07:08:27.196Z,93.03
2022-11-07T07:09:27.155Z,92.72
2022-11-07T07:10:28.196Z,92.47
2022-11-07T07:11:27.167Z,93.09
2022-11-07T07:12:27.147Z,92.47
2022-11-07T07:13:27.147Z,92.99
2022-11-07T07:14:27.115Z,92.68
2022-11-07T07:15:38.580Z,92.68
2022-11-07T07:16:28.093Z,92.88
2022-11-07T07:17:27.082Z,93.09
2022-11-07T07:18:28.131Z,92.68
2022-11-07T07:19:27.073Z,92.68
2022-11-07T07:20:27.167Z,92.99
2022-11-07T07:21:27.049Z,92.99
2022-11-07T07:22:27.056Z,92.37
2022-11-07T07:23:27.008Z,92.27
2022-11-07T07:24:27.028Z,92.33
2022-11-07T07:25:26.989Z,92.58
2022-11-07T07:26:27.004Z,92.54
2022-11-07T07:27:26.962Z,92.54
2022-11-07T07:28:26.951Z,92.37
2022-11-07T07:29:26.957Z,92.74
2022-11-07T07:30:33.463Z,92.33
2022-11-07T07:31:26.902Z,92.33
2022-11-07T07:32:26.912Z,92.13
2022-11-07T07:33:26.901Z,92.43
2022-11-07T07:34:26.890Z,92.54
2022-11-07T07:35:29.573Z,92.84
2022-11-07T07:36:26.878Z,92.13
2022-11-07T07:37:26.872Z,91.88
2022-11-07T07:38:26.843Z,92.23
2022-11-07T07:39:26.842Z,92.19
2022-11-07T07:40:26.839Z,92.19
2022-11-07T07:41:47.843Z,91.27
2022-11-07T07:42:26.797Z,91.57
2022-11-07T07:43:26.785Z,91.33
2022-11-07T07:44:26.772Z,91.33
2022-11-07T07:45:26.996Z,91.02
2022-11-07T07:46:26.744Z,90.71
2022-11-07T07:47:26.743Z,91.02
2022-11-07T07:48:26.796Z,90.98
2022-11-07T07:49:27.796Z,90.67
2022-11-07T07:50:26.707Z,90.36
2022-11-07T07:51:26.815Z,90.47
2022-11-07T07:52:26.689Z,90.36
2022-11-07T07:53:27.720Z,90.22
2022-11-07T07:54:26.992Z,90.36
2022-11-07T07:55:26.656Z,90.77
2022-11-07T07:56:26.637Z,90.26
2022-11-07T07:57:27.699Z,90.12
2022-11-07T07:58:26.618Z,89.61
2022-11-07T07:59:27.466Z,89.67
2022-11-07T08:00:26.588Z,89.47
2022-11-07T08:01:27.810Z,89.30
2022-11-07T08:02:26.707Z,88.90
2022-11-07T08:03:29.419Z,89.40
2022-11-07T08:04:27.552Z,89.36
2022-11-07T08:05:27.586Z,89.06
2022-11-07T08:06:26.529Z,88.85
2022-11-07T08:07:26.633Z,88.96
2022-11-07T08:08:26.532Z,88.96
2022-11-07T08:09:26.518Z,88.65
2022-11-07T08:10:41.472Z,88.75
2022-11-07T08:11:27.469Z,88.96
2022-11-07T08:12:27.494Z,88.65
2022-11-07T08:13:26.465Z,88.96
2022-11-07T08:14:26.448Z,88.85
2022-11-07T08:15:26.427Z,88.75
2022-11-07T08:16:26.421Z,88.14
2022-11-07T08:17:26.432Z,88.51
2022-11-07T08:18:26.411Z,88.71
2022-11-07T08:19:26.382Z,88.31
2022-11-07T08:20:26.468Z,88.40
2022-11-07T08:21:26.356Z,87.79
2022-11-07T08:22:26.358Z,88.20
2022-11-07T08:23:26.471Z,88.10
2022-11-07T08:24:26.347Z,88.20
2022-11-07T08:25:26.325Z,88.46
2022-11-07T08:26:26.316Z,87.90
2022-11-07T08:27:26.296Z,88.10
2022-11-07T08:28:26.293Z,87.90
2022-11-07T08:29:26.291Z,87.65
2022-11-07T08:30:26.262Z,87.55
2022-11-07T08:31:26.249Z,87.35
2022-11-07T08:32:26.244Z,87.45
2022-11-07T08:33:26.321Z,87.65
2022-11-07T08:34:27.314Z,87.45
2022-11-07T08:35:26.208Z,87.65
2022-11-07T08:36:26.197Z,87.65
2022-11-07T08:37:26.192Z,87.75
2022-11-07T08:38:26.172Z,87.24
2022-11-07T08:39:27.003Z,87.41
2022-11-07T08:40:26.173Z,87.30
2022-11-07T08:41:26.968Z,87.61
2022-11-07T08:42:26.124Z,87.51
2022-11-07T08:43:27.141Z,87.51
2022-11-07T08:44:26.116Z,87.51
2022-11-07T08:45:26.981Z,87.41
2022-11-07T08:46:26.103Z,87.51
2022-11-07T08:47:26.076Z,86.80
2022-11-07T08:48:26.074Z,86.39
2022-11-07T08:49:26.046Z,86.49
2022-11-07T08:50:26.045Z,86.35
2022-11-07T08:51:26.027Z,85.94
2022-11-07T08:52:26.040Z,86.45
2022-11-07T08:53:26.012Z,86.35
2022-11-07T08:54:26.007Z,86.15
2022-11-07T08:55:26.009Z,86.15
2022-11-07T08:56:26.011Z,86.25
2022-11-07T08:57:25.953Z,86.25
2022-11-07T08:58:29.970Z,86.45
2022-11-07T08:59:25.938Z,86.25
2022-11-07T09:00:25.931Z,86.45
2022-11-07T09:01:26.149Z,86.45
2022-11-07T09:04:26.928Z,86.86
2022-11-07T09:05:28.462Z,86.76
2022-11-07T09:06:26.920Z,86.65
2022-11-07T09:07:25.847Z,86.55
2022-11-07T09:08:26.470Z,86.35
2022-11-07T09:09:25.864Z,86.35
2022-11-07T09:10:25.812Z,86.04
2022-11-07T09:11:25.829Z,86.35
2022-11-07T09:12:25.794Z,86.15
2022-11-07T09:13:32.474Z,86.25
2022-11-07T09:14:25.796Z,86.25
2022-11-07T09:15:25.758Z,86.82
2022-11-07T09:16:25.751Z,86.35
2022-11-07T09:17:25.735Z,86.45
2022-11-07T09:18:25.746Z,86.71
2022-11-07T09:19:25.740Z,86.41
2022-11-07T09:20:27.742Z,86.21
2022-11-07T09:21:25.704Z,86.21
2022-11-07T09:22:25.703Z,85.70
2022-11-07T09:23:25.673Z,85.90
2022-11-07T09:24:25.695Z,86.31
2022-11-07T09:25:25.670Z,86.21
2022-11-07T09:26:25.649Z,86.41
2022-11-07T09:27:25.645Z,86.21
2022-11-07T09:28:25.622Z,86.10
2022-11-07T09:29:25.636Z,86.31
2022-11-07T09:30:46.633Z,86.00
2022-11-07T09:31:25.587Z,86.27
2022-11-07T09:32:43.823Z,86.07
2022-11-07T09:33:26.619Z,85.66
2022-11-07T09:34:25.582Z,86.02
2022-11-07T09:35:25.553Z,85.62
2022-11-07T09:36:25.542Z,85.52
2022-11-07T09:37:25.521Z,85.72
2022-11-07T09:38:25.532Z,85.68
2022-11-07T09:39:25.495Z,85.21
2022-11-07T09:40:25.517Z,84.87
2022-11-07T09:41:25.480Z,85.68
2022-11-07T09:42:25.482Z,85.38
2022-11-07T09:43:25.480Z,85.38
2022-11-07T09:44:30.598Z,84.77
2022-11-07T09:45:26.457Z,85.38
2022-11-07T09:46:25.433Z,85.27
2022-11-07T09:47:25.407Z,85.17
2022-11-07T09:48:25.406Z,85.17
2022-11-07T09:49:25.511Z,85.27
2022-11-07T09:50:25.386Z,85.27
2022-11-07T09:51:25.359Z,85.58
2022-11-07T09:52:25.358Z,85.38
2022-11-07T09:53:25.358Z,85.07
2022-11-07T09:54:25.330Z,85.27
2022-11-07T09:55:25.320Z,85.88
2022-11-07T09:56:25.314Z,85.41
2022-11-07T09:57:25.320Z,85.52
2022-11-07T09:58:27.370Z,85.62
2022-11-07T09:59:25.270Z,85.92
2022-11-07T10:00:25.273Z,85.88
2022-11-07T10:01:25.405Z,85.78
2022-11-07T10:02:25.319Z,85.98
2022-11-07T10:03:25.966Z,85.52
2022-11-07T10:04:26.660Z,86.13
2022-11-07T10:05:25.204Z,86.02
2022-11-07T10:06:25.202Z,86.22
2022-11-07T10:07:25.185Z,86.02
2022-11-07T10:08:25.170Z,85.92
2022-11-07T10:09:25.171Z,86.33
2022-11-07T10:10:25.172Z,86.53
2022-11-07T10:11:25.181Z,86.22
2022-11-07T10:12:25.129Z,86.83
2022-11-07T10:13:25.504Z,86.33
2022-11-07T10:14:25.997Z,86.29
2022-11-07T10:15:25.103Z,85.88
2022-11-07T10:16:26.153Z,85.98
2022-11-07T10:17:25.504Z,86.08
2022-11-07T10:18:25.070Z,85.98
2022-11-07T10:19:25.048Z,85.78
2022-11-07T10:20:26.163Z,86.22
2022-11-07T10:21:40.492Z,86.22
2022-11-07T10:22:26.082Z,86.63
2022-11-07T10:23:25.988Z,86.63
2022-11-07T10:24:25.989Z,86.53
2022-11-07T10:25:24.983Z,86.22
2022-11-07T10:26:24.978Z,86.22
2022-11-07T10:27:24.952Z,86.63
2022-11-07T10:28:24.970Z,86.43
2022-11-07T10:29:24.961Z,86.63
2022-11-07T10:30:24.937Z,86.80
2022-11-07T10:31:24.923Z,86.39
2022-11-07T10:32:24.933Z,86.29
2022-11-07T10:33:24.924Z,85.78
2022-11-07T10:34:24.881Z,86.29
2022-11-07T10:35:24.887Z,86.29
2022-11-07T10:36:24.864Z,85.98
2022-11-07T10:37:26.884Z,85.88
2022-11-07T10:38:24.861Z,86.08
2022-11-07T10:39:24.828Z,86.19
2022-11-07T10:40:24.838Z,85.98
2022-11-07T10:41:24.812Z,85.58
2022-11-07T10:42:24.796Z,86.29
2022-11-07T10:43:27.488Z,86.29
2022-11-07T10:44:24.780Z,86.29
2022-11-07T10:45:24.793Z,86.59
2022-11-07T10:46:24.764Z,87.20
2022-11-07T10:47:25.789Z,87.10
2022-11-07T10:48:24.732Z,86.49
2022-11-07T10:49:24.734Z,86.43
2022-11-07T10:50:24.700Z,87.45
2022-11-07T10:51:24.696Z,87.65
2022-11-07T10:52:24.684Z,88.32
2022-11-07T10:53:24.681Z,89.68
2022-11-07T10:54:25.713Z,89.98
2022-11-07T10:55:24.678Z,90.29
2022-11-07T10:56:24.638Z,90.74
2022-11-07T10:57:24.627Z,90.84
2022-11-07T10:58:24.622Z,92.26
2022-11-07T10:59:24.626Z,91.86
2022-11-07T11:00:24.624Z,92.77
2022-11-07T11:01:24.783Z,93.02
2022-11-07T11:02:25.571Z,93.83
2022-11-07T11:03:29.038Z,93.93
2022-11-07T11:04:25.555Z,94.74
2022-11-07T11:05:24.537Z,95.05
2022-11-07T11:06:24.527Z,94.74
2022-11-07T11:07:28.410Z,95.56
2022-11-07T11:08:24.508Z,96.11
2022-11-07T11:09:24.515Z,95.91
2022-11-07T11:10:24.486Z,96.72
2022-11-07T11:11:24.991Z,96.83
2022-11-07T11:12:24.468Z,97.13
2022-11-07T11:13:24.447Z,96.92
2022-11-07T11:14:26.977Z,97.03
2022-11-07T11:15:24.442Z,97.03
2022-11-07T11:16:26.989Z,96.68
2022-11-07T11:17:24.470Z,96.68
2022-11-07T11:18:24.430Z,97.13
2022-11-07T11:19:24.379Z,96.88
2022-11-07T11:20:24.380Z,97.03
2022-11-07T11:21:24.357Z,96.92
2022-11-07T11:22:24.351Z,97.33
2022-11-07T11:23:24.334Z,97.44
2022-11-07T11:24:24.988Z,97.74
2022-11-07T11:25:24.328Z,98.09
2022-11-07T11:26:24.350Z,98.19
2022-11-07T11:27:24.313Z,98.70
2022-11-07T11:28:26.992Z,99.11
2022-11-07T11:29:24.272Z,99.21
2022-11-07T11:30:25.303Z,99.31
2022-11-07T11:31:24.251Z,99.56
2022-11-07T11:32:24.240Z,99.87
2022-11-07T11:33:24.264Z,99.66
2022-11-07T11:34:24.237Z,99.46
2022-11-07T11:35:24.214Z,99.66
2022-11-07T11:36:24.191Z,99.56
2022-11-07T11:37:24.186Z,99.56
2022-11-07T11:38:24.169Z,99.36
2022-11-07T11:39:24.194Z,99.56
2022-11-07T11:40:24.216Z,99.87
2022-11-07T11:41:25.013Z,99.36
2022-11-07T11:42:24.123Z,99.46
2022-11-07T11:43:24.120Z,99.99
2022-11-07T11:44:24.101Z,99.97
2022-11-07T11:45:24.087Z,99.99
2022-11-07T11:46:25.989Z,99.99
2022-11-07T11:47:24.057Z,99.99
2022-11-07T11:48:24.056Z,99.99
2022-11-07T11:49:24.046Z,99.99
2022-11-07T11:50:24.084Z,99.99
2022-11-07T11:51:24.032Z,99.99
2022-11-07T11:52:24.006Z,99.99
2022-11-07T11:53:23.999Z,99.99
2022-11-07T11:54:23.990Z,99.99
2022-11-07T11:55:23.974Z,99.99
2022-11-07T11:56:26.079Z,99.99
2022-11-07T11:57:23.953Z,99.99
2022-11-07T11:58:23.951Z,99.99
2022-11-07T11:59:23.934Z,99.99
2022-11-07T12:00:23.943Z,99.99
2022-11-07T12:02:23.952Z,99.99
2022-11-07T12:03:23.885Z,99.99
2022-11-07T12:04:23.881Z,99.99
2022-11-07T12:05:23.867Z,99.99
2022-11-07T12:06:24.509Z,99.99
2022-11-07T12:07:24.879Z,99.99
2022-11-07T12:08:24.490Z,99.99
2022-11-07T12:09:23.821Z,99.82
2022-11-07T12:10:23.804Z,99.99
2022-11-07T12:11:23.803Z,99.99
2022-11-07T12:12:23.782Z,99.41
2022-11-07T12:13:23.802Z,99.82
2022-11-07T12:14:23.762Z,99.11
2022-11-07T12:15:23.758Z,99.82
2022-11-07T12:16:23.738Z,99.52
2022-11-07T12:17:30.494Z,99.31
2022-11-07T12:18:23.743Z,99.62
2022-11-07T12:19:23.719Z,98.86
2022-11-07T12:20:23.700Z,98.05
2022-11-07T12:21:24.498Z,98.25
2022-11-07T12:22:23.694Z,98.14
2022-11-07T12:23:23.678Z,98.05
2022-11-07T12:24:23.677Z,97.64
2022-11-07T12:25:23.643Z,97.94
2022-11-07T12:26:23.628Z,97.64
2022-11-07T12:27:26.990Z,97.64
2022-11-07T12:28:23.629Z,97.33
2022-11-07T12:29:23.610Z,97.60
2022-11-07T12:30:24.615Z,96.98
2022-11-07T12:31:23.573Z,97.08
2022-11-07T12:32:23.588Z,96.88
2022-11-07T12:33:23.540Z,96.63
2022-11-07T12:34:23.596Z,96.73
2022-11-07T12:35:23.533Z,95.17
2022-11-07T12:36:24.599Z,94.76
2022-11-07T12:37:23.501Z,95.07
2022-11-07T12:38:23.523Z,93.65
2022-11-07T12:39:23.471Z,93.25
2022-11-07T12:40:24.003Z,93.05
2022-11-07T12:41:23.477Z,92.60
2022-11-07T12:42:23.448Z,92.05
2022-11-07T12:43:23.431Z,91.38
2022-11-07T12:44:23.419Z,91.68
2022-11-07T12:45:23.436Z,91.38
2022-11-07T12:46:23.400Z,91.68
2022-11-07T12:47:44.400Z,91.17
2022-11-07T12:48:23.374Z,91.63
2022-11-07T12:49:23.373Z,91.08
2022-11-07T12:50:23.373Z,91.58
2022-11-07T12:51:23.347Z,91.38
2022-11-07T12:52:23.345Z,91.58
2022-11-07T12:53:23.336Z,91.68
2022-11-07T12:54:23.333Z,91.78
2022-11-07T12:55:23.323Z,91.38